sensor_id;sensor_type;location;lat;lon;timestamp;pressure;altitude;pressure_sealevel;temperature;humidity
69971;BME280;57301;50.328;8.542;2022-12-20T00:01:26;98867.06;;;4.69;92.71
69971;BME280;57301;50.328;8.542;2022-12-20T00:03:55;98853.72;;;5.20;96.05
69971;BME280;57301;50.328;8.542;2022-12-20T00:06:23;98858.97;;;5.57;96.65
69971;BME280;57301;50.328;8.542;2022-12-20T00:09:09;98846.50;;;5.59;91.33
69971;BME280;57301;50.328;8.542;2022-12-20T00:11:39;98851.94;;;5.69;93.16
69971;BME280;57301;50.328;8.542;2022-12-20T00:14:07;98852.31;;;5.75;90.62
69971;BME280;57301;50.328;8.542;2022-12-20T00:16:36;98848.06;;;5.61;87.13
69971;BME280;57301;50.328;8.542;2022-12-20T00:19:05;98854.06;;;5.63;83.62
69971;BME280;57301;50.328;8.542;2022-12-20T00:21:33;98865.59;;;5.15;84.05
69971;BME280;57301;50.328;8.542;2022-12-20T00:24:00;98857.47;;;4.55;85.51
69971;BME280;57301;50.328;8.542;2022-12-20T00:26:32;98852.63;;;4.49;86.99
69971;BME280;57301;50.328;8.542;2022-12-20T00:28:59;98839.06;;;4.54;86.08
69971;BME280;57301;50.328;8.542;2022-12-20T00:31:28;98827.91;;;4.12;88.13
69971;BME280;57301;50.328;8.542;2022-12-20T00:33:56;98839.94;;;4.03;89.44
69971;BME280;57301;50.328;8.542;2022-12-20T00:36:25;98824.75;;;4.07;88.86
69971;BME280;57301;50.328;8.542;2022-12-20T00:38:55;98817.84;;;3.92;88.86
69971;BME280;57301;50.328;8.542;2022-12-20T00:41:24;98815.00;;;3.82;89.96
69971;BME280;57301;50.328;8.542;2022-12-20T00:43:52;98818.53;;;3.56;91.54
69971;BME280;57301;50.328;8.542;2022-12-20T00:46:19;98821.63;;;3.62;90.71
69971;BME280;57301;50.328;8.542;2022-12-20T00:48:46;98817.31;;;3.74;91.88
69971;BME280;57301;50.328;8.542;2022-12-20T00:51:16;98828.41;;;3.92;93.55
69971;BME280;57301;50.328;8.542;2022-12-20T00:53:43;98819.03;;;4.00;93.98
69971;BME280;57301;50.328;8.542;2022-12-20T00:56:10;98817.44;;;4.11;91.12
69971;BME280;57301;50.328;8.542;2022-12-20T00:58:39;98819.34;;;4.09;90.36
69971;BME280;57301;50.328;8.542;2022-12-20T01:01:16;98819.59;;;4.18;91.93
69971;BME280;57301;50.328;8.542;2022-12-20T01:03:44;98820.97;;;4.24;91.51
69971;BME280;57301;50.328;8.542;2022-12-20T01:06:11;98822.31;;;4.29;90.73
69971;BME280;57301;50.328;8.542;2022-12-20T01:08:37;98816.41;;;4.13;89.58
69971;BME280;57301;50.328;8.542;2022-12-20T01:11:11;98823.16;;;4.17;89.06
69971;BME280;57301;50.328;8.542;2022-12-20T01:13:41;98830.00;;;3.82;91.16
69971;BME280;57301;50.328;8.542;2022-12-20T01:16:12;98829.75;;;3.72;91.27
69971;BME280;57301;50.328;8.542;2022-12-20T01:18:39;98821.88;;;3.85;90.95
69971;BME280;57301;50.328;8.542;2022-12-20T01:21:10;98832.63;;;3.69;90.68
69971;BME280;57301;50.328;8.542;2022-12-20T01:23:37;98826.94;;;3.75;91.56
69971;BME280;57301;50.328;8.542;2022-12-20T01:26:06;98816.53;;;4.12;96.55
69971;BME280;57301;50.328;8.542;2022-12-20T01:28:38;98824.31;;;4.13;93.93
69971;BME280;57301;50.328;8.542;2022-12-20T01:31:06;98824.53;;;4.23;92.60
69971;BME280;57301;50.328;8.542;2022-12-20T01:33:34;98824.94;;;4.17;90.01
69971;BME280;57301;50.328;8.542;2022-12-20T01:36:04;98835.84;;;3.60;91.74
69971;BME280;57301;50.328;8.542;2022-12-20T01:38:32;98832.28;;;3.73;92.55
69971;BME280;57301;50.328;8.542;2022-12-20T01:40:59;98820.28;;;3.82;91.57
69971;BME280;57301;50.328;8.542;2022-12-20T01:43:53;98832.22;;;3.88;91.60
69971;BME280;57301;50.328;8.542;2022-12-20T01:46:22;98839.28;;;3.87;91.72
69971;BME280;57301;50.328;8.542;2022-12-20T01:48:54;98829.59;;;4.13;91.83
69971;BME280;57301;50.328;8.542;2022-12-20T01:51:22;98829.91;;;4.09;92.37
69971;BME280;57301;50.328;8.542;2022-12-20T01:53:54;98818.09;;;4.14;92.83
69971;BME280;57301;50.328;8.542;2022-12-20T01:56:23;98799.19;;;4.20;92.49
69971;BME280;57301;50.328;8.542;2022-12-20T01:58:50;98815.03;;;4.33;92.33
69971;BME280;57301;50.328;8.542;2022-12-20T02:01:20;98798.72;;;4.52;92.76
69971;BME280;57301;50.328;8.542;2022-12-20T02:03:48;98813.63;;;4.53;93.86
69971;BME280;57301;50.328;8.542;2022-12-20T02:06:18;98803.88;;;4.66;95.13
69971;BME280;57301;50.328;8.542;2022-12-20T02:08:47;98777.75;;;4.87;93.29
69971;BME280;57301;50.328;8.542;2022-12-20T02:11:28;98781.09;;;4.89;94.18
69971;BME280;57301;50.328;8.542;2022-12-20T02:17:06;98767.69;;;4.92;92.22
69971;BME280;57301;50.328;8.542;2022-12-20T02:25:12;98761.72;;;4.65;88.12
69971;BME280;57301;50.328;8.542;2022-12-20T02:27:47;98754.53;;;4.30;89.54
69971;BME280;57301;50.328;8.542;2022-12-20T02:30:21;98750.81;;;4.32;90.20
69971;BME280;57301;50.328;8.542;2022-12-20T02:32:59;98749.75;;;4.35;90.50
69971;BME280;57301;50.328;8.542;2022-12-20T02:35:30;98749.69;;;4.24;89.95
69971;BME280;57301;50.328;8.542;2022-12-20T02:38:00;98758.97;;;4.17;89.85
69971;BME280;57301;50.328;8.542;2022-12-20T02:40:39;98762.25;;;3.82;89.77
69971;BME280;57301;50.328;8.542;2022-12-20T02:43:07;98752.75;;;3.80;89.78
69971;BME280;57301;50.328;8.542;2022-12-20T02:45:56;98749.97;;;3.56;91.08
69971;BME280;57301;50.328;8.542;2022-12-20T02:48:26;98739.78;;;3.51;92.95
69971;BME280;57301;50.328;8.542;2022-12-20T02:50:56;98754.22;;;3.71;91.90
69971;BME280;57301;50.328;8.542;2022-12-20T02:53:24;98742.00;;;3.70;90.75
69971;BME280;57301;50.328;8.542;2022-12-20T02:56:04;98743.69;;;3.71;91.49
69971;BME280;57301;50.328;8.542;2022-12-20T02:58:46;98747.38;;;3.68;91.81
69971;BME280;57301;50.328;8.542;2022-12-20T03:01:26;98754.00;;;3.74;91.61
69971;BME280;57301;50.328;8.542;2022-12-20T03:03:56;98750.66;;;3.72;91.80
69971;BME280;57301;50.328;8.542;2022-12-20T03:06:23;98752.31;;;3.86;90.33
69971;BME280;57301;50.328;8.542;2022-12-20T03:08:50;98753.28;;;3.72;91.03
69971;BME280;57301;50.328;8.542;2022-12-20T03:11:16;98743.56;;;3.60;91.55
69971;BME280;57301;50.328;8.542;2022-12-20T03:13:42;98748.84;;;3.60;92.01
69971;BME280;57301;50.328;8.542;2022-12-20T03:16:09;98745.47;;;3.58;92.61
69971;BME280;57301;50.328;8.542;2022-12-20T03:18:36;98758.25;;;3.64;92.31
69971;BME280;57301;50.328;8.542;2022-12-20T03:21:02;98766.88;;;3.78;93.38
69971;BME280;57301;50.328;8.542;2022-12-20T03:23:29;98765.97;;;4.18;96.05
69971;BME280;57301;50.328;8.542;2022-12-20T03:25:56;98763.69;;;4.50;95.32
69971;BME280;57301;50.328;8.542;2022-12-20T03:28:22;98753.22;;;5.09;94.60
69971;BME280;57301;50.328;8.542;2022-12-20T03:30:48;98759.34;;;5.69;92.06
69971;BME280;57301;50.328;8.542;2022-12-20T03:33:15;98755.28;;;5.87;90.28
69971;BME280;57301;50.328;8.542;2022-12-20T03:35:42;98751.13;;;6.18;87.42
69971;BME280;57301;50.328;8.542;2022-12-20T03:38:08;98746.56;;;6.31;85.84
69971;BME280;57301;50.328;8.542;2022-12-20T03:40:35;98742.09;;;6.43;84.91
69971;BME280;57301;50.328;8.542;2022-12-20T03:43:01;98746.69;;;6.41;84.66
69971;BME280;57301;50.328;8.542;2022-12-20T03:45:28;98729.59;;;6.45;84.51
69971;BME280;57301;50.328;8.542;2022-12-20T03:47:56;98710.31;;;6.54;83.94
69971;BME280;57301;50.328;8.542;2022-12-20T03:50:23;98705.00;;;6.54;84.13
69971;BME280;57301;50.328;8.542;2022-12-20T03:52:52;98714.00;;;6.63;83.58
69971;BME280;57301;50.328;8.542;2022-12-20T03:55:19;98713.41;;;6.70;83.30
69971;BME280;57301;50.328;8.542;2022-12-20T03:57:45;98725.66;;;6.83;82.50
69971;BME280;57301;50.328;8.542;2022-12-20T04:00:12;98738.69;;;6.74;81.91
69971;BME280;57301;50.328;8.542;2022-12-20T04:02:39;98739.78;;;6.61;82.42
69971;BME280;57301;50.328;8.542;2022-12-20T04:05:06;98743.53;;;6.58;81.69
69971;BME280;57301;50.328;8.542;2022-12-20T04:07:33;98748.97;;;6.45;83.08
69971;BME280;57301;50.328;8.542;2022-12-20T04:09:59;98745.56;;;6.66;82.93
69971;BME280;57301;50.328;8.542;2022-12-20T04:12:25;98747.75;;;6.50;83.09
69971;BME280;57301;50.328;8.542;2022-12-20T04:14:52;98749.19;;;6.65;82.92
69971;BME280;57301;50.328;8.542;2022-12-20T04:17:18;98750.72;;;6.79;82.19
69971;BME280;57301;50.328;8.542;2022-12-20T04:19:45;98742.00;;;6.44;82.78
69971;BME280;57301;50.328;8.542;2022-12-20T04:22:11;98725.22;;;6.44;83.05
69971;BME280;57301;50.328;8.542;2022-12-20T04:24:38;98728.72;;;6.56;83.11
69971;BME280;57301;50.328;8.542;2022-12-20T04:27:04;98721.25;;;6.50;83.22
69971;BME280;57301;50.328;8.542;2022-12-20T04:29:31;98716.94;;;6.49;82.99
69971;BME280;57301;50.328;8.542;2022-12-20T04:31:57;98710.81;;;6.37;83.48
69971;BME280;57301;50.328;8.542;2022-12-20T04:34:24;98707.31;;;6.36;83.54
69971;BME280;57301;50.328;8.542;2022-12-20T04:36:50;98702.16;;;6.35;83.26
69971;BME280;57301;50.328;8.542;2022-12-20T04:39:17;98707.94;;;6.29;83.44
69971;BME280;57301;50.328;8.542;2022-12-20T04:41:43;98708.28;;;6.24;84.54
69971;BME280;57301;50.328;8.542;2022-12-20T04:44:10;98704.53;;;6.38;83.50
69971;BME280;57301;50.328;8.542;2022-12-20T04:46:36;98693.22;;;6.36;83.59
69971;BME280;57301;50.328;8.542;2022-12-20T04:49:03;98699.97;;;6.40;83.57
69971;BME280;57301;50.328;8.542;2022-12-20T04:51:30;98707.91;;;6.51;83.50
69971;BME280;57301;50.328;8.542;2022-12-20T04:53:56;98715.38;;;6.57;83.57
69971;BME280;57301;50.328;8.542;2022-12-20T04:56:26;98717.28;;;6.44;83.32
69971;BME280;57301;50.328;8.542;2022-12-20T04:58:55;98707.03;;;6.62;83.43
69971;BME280;57301;50.328;8.542;2022-12-20T05:01:22;98702.06;;;6.80;nan
69971;BME280;57301;50.328;8.542;2022-12-20T05:03:48;98699.53;;;6.78;83.79
69971;BME280;57301;50.328;8.542;2022-12-20T05:06:16;98695.13;;;6.99;83.75
69971;BME280;57301;50.328;8.542;2022-12-20T05:08:43;98693.59;;;7.18;83.26
69971;BME280;57301;50.328;8.542;2022-12-20T05:11:10;98691.00;;;7.07;83.06
69971;BME280;57301;50.328;8.542;2022-12-20T05:13:37;98693.06;;;7.03;82.59
69971;BME280;57301;50.328;8.542;2022-12-20T05:16:03;98686.78;;;7.04;82.08
69971;BME280;57301;50.328;8.542;2022-12-20T05:18:30;98698.50;;;7.02;82.13
69971;BME280;57301;50.328;8.542;2022-12-20T05:20:58;98697.06;;;6.97;82.49
69971;BME280;57301;50.328;8.542;2022-12-20T05:23:44;98688.78;;;6.91;82.84
69971;BME280;57301;50.328;8.542;2022-12-20T05:26:33;98703.88;;;7.11;82.41
69971;BME280;57301;50.328;8.542;2022-12-20T05:29:01;98707.97;;;7.15;82.05
69971;BME280;57301;50.328;8.542;2022-12-20T05:31:28;98702.81;;;7.03;81.65
69971;BME280;57301;50.328;8.542;2022-12-20T05:33:55;98691.00;;;7.07;81.62
69971;BME280;57301;50.328;8.542;2022-12-20T05:36:21;98682.41;;;7.14;81.76
69971;BME280;57301;50.328;8.542;2022-12-20T05:38:48;98678.66;;;7.17;81.47
69971;BME280;57301;50.328;8.542;2022-12-20T05:41:15;98675.03;;;6.86;82.72
69971;BME280;57301;50.328;8.542;2022-12-20T05:43:41;98681.66;;;6.91;82.65
69971;BME280;57301;50.328;8.542;2022-12-20T05:46:08;98664.00;;;7.13;81.74
69971;BME280;57301;50.328;8.542;2022-12-20T05:48:35;98664.59;;;7.05;81.65
69971;BME280;57301;50.328;8.542;2022-12-20T05:51:02;98654.69;;;6.86;82.77
69971;BME280;57301;50.328;8.542;2022-12-20T05:53:29;98652.13;;;6.96;83.34
69971;BME280;57301;50.328;8.542;2022-12-20T05:55:56;98641.47;;;7.07;82.86
69971;BME280;57301;50.328;8.542;2022-12-20T05:58:22;98639.91;;;7.05;83.66
69971;BME280;57301;50.328;8.542;2022-12-20T06:00:49;98635.38;;;7.16;nan
69971;BME280;57301;50.328;8.542;2022-12-20T06:03:16;98633.69;;;6.94;84.71
69971;BME280;57301;50.328;8.542;2022-12-20T06:05:43;98639.50;;;6.88;83.94
69971;BME280;57301;50.328;8.542;2022-12-20T06:08:10;98651.41;;;6.94;83.50
69971;BME280;57301;50.328;8.542;2022-12-20T06:10:38;98665.22;;;6.77;83.76
69971;BME280;57301;50.328;8.542;2022-12-20T06:13:06;98656.16;;;6.79;84.49
69971;BME280;57301;50.328;8.542;2022-12-20T06:15:32;98659.78;;;6.78;84.61
69971;BME280;57301;50.328;8.542;2022-12-20T06:17:59;98656.91;;;7.02;83.30
69971;BME280;57301;50.328;8.542;2022-12-20T06:20:26;98640.50;;;7.08;83.26
69971;BME280;57301;50.328;8.542;2022-12-20T06:22:53;98636.16;;;7.28;83.57
69971;BME280;57301;50.328;8.542;2022-12-20T06:25:20;98637.25;;;7.46;83.00
69971;BME280;57301;50.328;8.542;2022-12-20T06:27:46;98632.53;;;7.50;83.47
69971;BME280;57301;50.328;8.542;2022-12-20T06:30:13;98632.50;;;7.71;82.89
69971;BME280;57301;50.328;8.542;2022-12-20T06:32:40;98637.13;;;7.69;83.95
69971;BME280;57301;50.328;8.542;2022-12-20T06:35:07;98639.56;;;7.91;83.32
69971;BME280;57301;50.328;8.542;2022-12-20T06:37:34;98643.81;;;8.03;82.70
69971;BME280;57301;50.328;8.542;2022-12-20T06:40:02;98660.19;;;8.08;82.92
69971;BME280;57301;50.328;8.542;2022-12-20T06:42:28;98655.22;;;8.25;82.92
69971;BME280;57301;50.328;8.542;2022-12-20T06:44:55;98647.81;;;8.28;82.96
69971;BME280;57301;50.328;8.542;2022-12-20T06:47:21;98650.69;;;8.37;81.79
69971;BME280;57301;50.328;8.542;2022-12-20T06:49:48;98649.31;;;8.52;82.07
69971;BME280;57301;50.328;8.542;2022-12-20T06:52:14;98656.31;;;8.63;81.73
69971;BME280;57301;50.328;8.542;2022-12-20T06:54:41;98655.09;;;8.67;82.17
69971;BME280;57301;50.328;8.542;2022-12-20T06:57:07;98655.06;;;8.57;82.79
69971;BME280;57301;50.328;8.542;2022-12-20T06:59:34;98670.75;;;8.70;81.21
69971;BME280;57301;50.328;8.542;2022-12-20T07:02:00;98670.78;;;8.79;81.00
69971;BME280;57301;50.328;8.542;2022-12-20T07:04:28;98662.94;;;8.87;80.89
69971;BME280;57301;50.328;8.542;2022-12-20T07:06:54;98660.84;;;9.01;80.43
69971;BME280;57301;50.328;8.542;2022-12-20T07:09:22;98654.69;;;9.10;79.89
69971;BME280;57301;50.328;8.542;2022-12-20T07:11:49;98662.13;;;8.97;80.33
69971;BME280;57301;50.328;8.542;2022-12-20T07:14:15;98665.72;;;8.96;79.84
69971;BME280;57301;50.328;8.542;2022-12-20T07:16:42;98659.44;;;9.06;80.31
69971;BME280;57301;50.328;8.542;2022-12-20T07:19:10;98656.34;;;9.21;78.81
69971;BME280;57301;50.328;8.542;2022-12-20T07:21:37;98652.75;;;9.02;79.32
69971;BME280;57301;50.328;8.542;2022-12-20T07:24:04;98648.25;;;9.22;78.20
69971;BME280;57301;50.328;8.542;2022-12-20T07:26:31;98645.31;;;8.86;79.21
69971;BME280;57301;50.328;8.542;2022-12-20T07:28:58;98640.97;;;8.85;78.95
69971;BME280;57301;50.328;8.542;2022-12-20T07:31:24;98636.91;;;8.91;79.29
69971;BME280;57301;50.328;8.542;2022-12-20T07:33:51;98639.53;;;8.62;79.59
69971;BME280;57301;50.328;8.542;2022-12-20T07:36:17;98645.38;;;8.46;80.59
69971;BME280;57301;50.328;8.542;2022-12-20T07:38:44;98635.31;;;8.50;80.66
69971;BME280;57301;50.328;8.542;2022-12-20T07:41:15;98636.91;;;8.72;80.07
69971;BME280;57301;50.328;8.542;2022-12-20T07:43:43;98638.16;;;8.87;80.10
69971;BME280;57301;50.328;8.542;2022-12-20T07:46:14;98632.84;;;8.87;79.16
69971;BME280;57301;50.328;8.542;2022-12-20T07:48:41;98626.13;;;8.73;79.63
69971;BME280;57301;50.328;8.542;2022-12-20T07:51:16;98615.19;;;8.57;78.83
69971;BME280;57301;50.328;8.542;2022-12-20T07:53:47;98621.47;;;8.56;79.43
69971;BME280;57301;50.328;8.542;2022-12-20T07:56:17;98618.13;;;8.64;79.51
69971;BME280;57301;50.328;8.542;2022-12-20T07:58:47;98621.63;;;8.64;79.75
69971;BME280;57301;50.328;8.542;2022-12-20T08:01:15;98624.28;;;8.54;78.76
69971;BME280;57301;50.328;8.542;2022-12-20T08:03:47;98613.50;;;8.56;75.89
69971;BME280;57301;50.328;8.542;2022-12-20T08:06:15;98615.84;;;8.40;76.53
69971;BME280;57301;50.328;8.542;2022-12-20T08:08:46;98613.84;;;7.92;77.96
69971;BME280;57301;50.328;8.542;2022-12-20T08:11:14;98608.00;;;7.98;78.33
69971;BME280;57301;50.328;8.542;2022-12-20T08:13:42;98606.63;;;7.94;78.98
69971;BME280;57301;50.328;8.542;2022-12-20T08:16:12;98618.63;;;7.98;78.24
69971;BME280;57301;50.328;8.542;2022-12-20T08:18:39;98602.88;;;8.06;78.49
69971;BME280;57301;50.328;8.542;2022-12-20T08:21:05;98603.28;;;8.01;78.28
69971;BME280;57301;50.328;8.542;2022-12-20T08:23:32;98606.38;;;8.06;78.54
69971;BME280;57301;50.328;8.542;2022-12-20T08:26:01;98603.91;;;7.74;78.90
69971;BME280;57301;50.328;8.542;2022-12-20T08:28:28;98605.94;;;7.61;79.63
69971;BME280;57301;50.328;8.542;2022-12-20T08:31:01;98609.72;;;7.68;79.66
69971;BME280;57301;50.328;8.542;2022-12-20T08:33:28;98615.44;;;7.64;79.31
69971;BME280;57301;50.328;8.542;2022-12-20T08:35:59;98613.53;;;7.75;78.42
69971;BME280;57301;50.328;8.542;2022-12-20T08:38:28;98605.97;;;7.71;78.87
69971;BME280;57301;50.328;8.542;2022-12-20T08:41:10;98609.72;;;7.68;79.99
69971;BME280;57301;50.328;8.542;2022-12-20T08:43:38;98603.91;;;7.53;79.52
69971;BME280;57301;50.328;8.542;2022-12-20T08:46:05;98612.94;;;7.72;78.98
69971;BME280;57301;50.328;8.542;2022-12-20T08:48:33;98598.97;;;7.70;79.39
69971;BME280;57301;50.328;8.542;2022-12-20T08:51:01;98618.53;;;7.48;80.36
69971;BME280;57301;50.328;8.542;2022-12-20T08:53:28;98608.13;;;7.56;81.48
69971;BME280;57301;50.328;8.542;2022-12-20T08:56:09;98607.72;;;7.61;84.38
69971;BME280;57301;50.328;8.542;2022-12-20T08:58:38;98611.69;;;8.06;84.17
69971;BME280;57301;50.328;8.542;2022-12-20T09:01:06;98604.97;;;8.52;82.29
69971;BME280;57301;50.328;8.542;2022-12-20T09:03:35;98614.94;;;8.79;80.38
69971;BME280;57301;50.328;8.542;2022-12-20T09:06:10;98598.25;;;9.16;80.27
69971;BME280;57301;50.328;8.542;2022-12-20T09:08:38;98596.56;;;9.25;79.05
69971;BME280;57301;50.328;8.542;2022-12-20T09:11:11;98604.66;;;9.33;79.19
69971;BME280;57301;50.328;8.542;2022-12-20T09:13:38;98586.53;;;9.56;77.46
69971;BME280;57301;50.328;8.542;2022-12-20T09:16:11;98590.47;;;9.52;78.57
69971;BME280;57301;50.328;8.542;2022-12-20T09:18:38;98590.69;;;9.21;77.94
69971;BME280;57301;50.328;8.542;2022-12-20T09:21:06;98600.03;;;9.25;77.85
69971;BME280;57301;50.328;8.542;2022-12-20T09:23:34;98598.22;;;9.26;77.70
69971;BME280;57301;50.328;8.542;2022-12-20T09:26:05;98583.66;;;9.39;76.17
69971;BME280;57301;50.328;8.542;2022-12-20T09:28:33;98592.78;;;9.18;77.08
69971;BME280;57301;50.328;8.542;2022-12-20T09:31:04;98591.91;;;9.27;76.67
69971;BME280;57301;50.328;8.542;2022-12-20T09:33:32;98579.19;;;9.30;76.86
69971;BME280;57301;50.328;8.542;2022-12-20T09:35:59;98583.25;;;9.34;76.95
69971;BME280;57301;50.328;8.542;2022-12-20T09:38:27;98578.81;;;9.15;77.17
69971;BME280;57301;50.328;8.542;2022-12-20T09:40:58;98580.06;;;9.21;77.44
69971;BME280;57301;50.328;8.542;2022-12-20T09:43:27;98585.56;;;8.91;77.81
69971;BME280;57301;50.328;8.542;2022-12-20T09:45:57;98581.47;;;8.86;77.81
69971;BME280;57301;50.328;8.542;2022-12-20T09:48:44;98580.53;;;8.78;78.21
69971;BME280;57301;50.328;8.542;2022-12-20T09:51:31;98569.59;;;8.91;78.08
69971;BME280;57301;50.328;8.542;2022-12-20T09:56:54;98567.34;;;8.86;78.34
69971;BME280;57301;50.328;8.542;2022-12-20T09:59:23;98574.34;;;8.97;78.22
69971;BME280;57301;50.328;8.542;2022-12-20T10:01:50;98573.22;;;9.09;77.78
69971;BME280;57301;50.328;8.542;2022-12-20T10:04:26;98572.91;;;9.22;78.07
69971;BME280;57301;50.328;8.542;2022-12-20T10:07:26;98563.97;;;9.03;78.10
69971;BME280;57301;50.328;8.542;2022-12-20T10:15:16;98549.84;;;8.83;77.85
69971;BME280;57301;50.328;8.542;2022-12-20T10:23:14;98557.53;;;8.38;77.58
69971;BME280;57301;50.328;8.542;2022-12-20T10:25:42;98542.81;;;8.24;77.51
69971;BME280;57301;50.328;8.542;2022-12-20T10:28:14;98531.91;;;8.18;78.18
69971;BME280;57301;50.328;8.542;2022-12-20T10:30:42;98532.56;;;8.00;77.59
69971;BME280;57301;50.328;8.542;2022-12-20T10:33:22;98535.19;;;7.91;78.43
69971;BME280;57301;50.328;8.542;2022-12-20T10:35:49;98538.56;;;7.93;78.41
69971;BME280;57301;50.328;8.542;2022-12-20T10:38:16;98530.41;;;7.75;79.28
69971;BME280;57301;50.328;8.542;2022-12-20T10:43:46;98515.56;;;7.72;79.17
69971;BME280;57301;50.328;8.542;2022-12-20T10:46:14;98503.16;;;7.73;78.32
69971;BME280;57301;50.328;8.542;2022-12-20T10:48:46;98504.66;;;7.56;79.09
69971;BME280;57301;50.328;8.542;2022-12-20T10:51:16;98500.41;;;7.44;79.61
69971;BME280;57301;50.328;8.542;2022-12-20T10:56:27;98490.78;;;7.43;79.89
69971;BME280;57301;50.328;8.542;2022-12-20T11:01:35;98486.41;;;7.82;79.10
69971;BME280;57301;50.328;8.542;2022-12-20T11:04:05;98497.44;;;7.77;78.90
69971;BME280;57301;50.328;8.542;2022-12-20T11:09:22;98492.19;;;8.06;79.04
69971;BME280;57301;50.328;8.542;2022-12-20T11:12:13;98494.03;;;8.25;78.17
69971;BME280;57301;50.328;8.542;2022-12-20T11:14:43;98478.66;;;8.29;78.45
69971;BME280;57301;50.328;8.542;2022-12-20T11:27:58;98479.78;;;8.55;77.77
69971;BME280;57301;50.328;8.542;2022-12-20T11:38:40;98483.97;;;8.68;76.71
69971;BME280;57301;50.328;8.542;2022-12-20T11:41:22;98469.72;;;8.49;77.82
69971;BME280;57301;50.328;8.542;2022-12-20T11:44:08;98482.88;;;8.60;77.47
69971;BME280;57301;50.328;8.542;2022-12-20T11:47:04;98466.03;;;8.70;77.21
69971;BME280;57301;50.328;8.542;2022-12-20T11:49:48;98453.03;;;8.76;77.02
69971;BME280;57301;50.328;8.542;2022-12-20T11:52:34;98445.19;;;8.75;76.78
69971;BME280;57301;50.328;8.542;2022-12-20T11:55:14;98449.38;;;8.87;76.13
69971;BME280;57301;50.328;8.542;2022-12-20T12:00:52;98440.22;;;8.99;75.81
69971;BME280;57301;50.328;8.542;2022-12-20T12:03:27;98426.84;;;9.19;75.23
69971;BME280;57301;50.328;8.542;2022-12-20T12:05:59;98438.31;;;9.29;75.33
69971;BME280;57301;50.328;8.542;2022-12-20T12:09:10;98428.00;;;9.16;74.68
69971;BME280;57301;50.328;8.542;2022-12-20T12:11:43;98438.56;;;8.88;75.33
69971;BME280;57301;50.328;8.542;2022-12-20T12:14:54;98432.16;;;8.91;75.82
69971;BME280;57301;50.328;8.542;2022-12-20T12:17:37;98433.00;;;8.82;74.89
69971;BME280;57301;50.328;8.542;2022-12-20T12:23:04;98417.25;;;8.51;75.65
69971;BME280;57301;50.328;8.542;2022-12-20T12:25:36;98418.94;;;8.52;75.33
69971;BME280;57301;50.328;8.542;2022-12-20T12:28:03;98416.56;;;8.30;75.96
69971;BME280;57301;50.328;8.542;2022-12-20T12:30:36;98426.66;;;8.36;76.00
69971;BME280;57301;50.328;8.542;2022-12-20T12:33:12;98422.03;;;8.48;74.84
69971;BME280;57301;50.328;8.542;2022-12-20T12:36:00;98410.25;;;8.21;76.99
69971;BME280;57301;50.328;8.542;2022-12-20T12:44:28;98398.25;;;7.98;77.08
69971;BME280;57301;50.328;8.542;2022-12-20T12:47:10;98404.69;;;8.15;75.99
69971;BME280;57301;50.328;8.542;2022-12-20T12:49:39;98391.81;;;8.29;75.62
69971;BME280;57301;50.328;8.542;2022-12-20T12:52:06;98391.66;;;8.21;76.15
69971;BME280;57301;50.328;8.542;2022-12-20T12:54:39;98400.22;;;8.05;76.08
69971;BME280;57301;50.328;8.542;2022-12-20T12:57:12;98395.91;;;8.04;76.75
69971;BME280;57301;50.328;8.542;2022-12-20T13:04:59;98384.41;;;8.14;76.65
69971;BME280;57301;50.328;8.542;2022-12-20T13:07:40;98369.44;;;8.22;76.89
69971;BME280;57301;50.328;8.542;2022-12-20T13:20:31;98362.16;;;8.53;75.99
69971;BME280;57301;50.328;8.542;2022-12-20T13:23:13;98363.16;;;8.43;77.16
69971;BME280;57301;50.328;8.542;2022-12-20T13:25:44;98362.28;;;8.52;77.71
69971;BME280;57301;50.328;8.542;2022-12-20T13:30:46;98371.44;;;8.77;76.12
69971;BME280;57301;50.328;8.542;2022-12-20T13:33:21;98366.25;;;8.38;77.16
69971;BME280;57301;50.328;8.542;2022-12-20T13:35:58;98374.72;;;8.61;76.24
69971;BME280;57301;50.328;8.542;2022-12-20T13:41:40;98368.84;;;8.57;76.44
69971;BME280;57301;50.328;8.542;2022-12-20T13:46:53;98374.88;;;8.50;75.85
69971;BME280;57301;50.328;8.542;2022-12-20T13:49:42;98370.84;;;8.46;76.72
69971;BME280;57301;50.328;8.542;2022-12-20T13:52:23;98376.81;;;8.57;76.43
69971;BME280;57301;50.328;8.542;2022-12-20T13:54:55;98378.13;;;8.44;76.43
69971;BME280;57301;50.328;8.542;2022-12-20T13:57:28;98371.25;;;8.22;76.89
69971;BME280;57301;50.328;8.542;2022-12-20T13:59:58;98377.13;;;8.25;76.58
69971;BME280;57301;50.328;8.542;2022-12-20T14:02:35;98367.91;;;8.29;77.02
69971;BME280;57301;50.328;8.542;2022-12-20T14:05:12;98368.47;;;8.14;77.19
69971;BME280;57301;50.328;8.542;2022-12-20T14:07:40;98361.75;;;8.39;76.79
69971;BME280;57301;50.328;8.542;2022-12-20T14:10:17;98358.81;;;8.32;76.46
69971;BME280;57301;50.328;8.542;2022-12-20T14:12:44;98356.91;;;8.05;77.48
69971;BME280;57301;50.328;8.542;2022-12-20T14:15:26;98349.75;;;8.15;77.76
69971;BME280;57301;50.328;8.542;2022-12-20T14:17:54;98341.09;;;8.13;77.75
69971;BME280;57301;50.328;8.542;2022-12-20T14:20:32;98340.22;;;8.22;77.85
69971;BME280;57301;50.328;8.542;2022-12-20T14:23:13;98343.69;;;8.32;77.71
69971;BME280;57301;50.328;8.542;2022-12-20T14:25:53;98329.72;;;8.50;77.91
69971;BME280;57301;50.328;8.542;2022-12-20T14:28:36;98313.91;;;8.48;77.64
69971;BME280;57301;50.328;8.542;2022-12-20T14:31:05;98305.03;;;8.67;77.51
69971;BME280;57301;50.328;8.542;2022-12-20T14:33:37;98307.63;;;8.77;76.73
69971;BME280;57301;50.328;8.542;2022-12-20T14:38:49;98321.00;;;8.57;77.56
69971;BME280;57301;50.328;8.542;2022-12-20T14:41:45;98319.00;;;8.69;77.02
69971;BME280;57301;50.328;8.542;2022-12-20T14:44:16;98333.03;;;8.61;76.88
69971;BME280;57301;50.328;8.542;2022-12-20T14:46:48;98318.72;;;8.72;76.53
69971;BME280;57301;50.328;8.542;2022-12-20T14:51:49;98328.91;;;8.77;76.40
69971;BME280;57301;50.328;8.542;2022-12-20T14:54:26;98325.41;;;8.76;76.72
69971;BME280;57301;50.328;8.542;2022-12-20T14:57:23;98326.78;;;8.80;76.46
69971;BME280;57301;50.328;8.542;2022-12-20T15:02:41;98318.03;;;8.98;76.21
69971;BME280;57301;50.328;8.542;2022-12-20T15:08:26;98319.53;;;9.10;75.98